createdAt,value
2019-04-07T00:00:14.324Z,66.70
2019-04-07T00:00:50.411Z,66.70
2019-04-07T00:01:24.059Z,66.80
2019-04-07T00:01:57.308Z,66.90
2019-04-07T00:02:30.418Z,67.00
2019-04-07T00:03:03.667Z,67.10
2019-04-07T00:03:37.307Z,67.10
2019-04-07T00:04:10.386Z,67.20
2019-04-07T00:04:44.215Z,67.30
2019-04-07T00:05:17.223Z,67.30
2019-04-07T00:05:50.637Z,67.90
2019-04-07T00:06:24.180Z,67.20
2019-04-07T00:06:57.622Z,67.40
2019-04-07T00:07:30.303Z,67.60
2019-04-07T00:08:02.966Z,67.50
2019-04-07T00:08:36.561Z,67.50
2019-04-07T00:09:18.844Z,67.50
2019-04-07T00:09:55.865Z,67.60
2019-04-07T00:10:28.778Z,67.70
2019-04-07T00:11:01.418Z,67.80
2019-04-07T00:11:33.959Z,67.80
2019-04-07T00:12:07.179Z,67.90
2019-04-07T00:12:39.754Z,68.20
2019-04-07T00:13:13.556Z,68.10
2019-04-07T00:13:46.893Z,68.20
2019-04-07T00:14:19.555Z,68.20
2019-04-07T00:14:55.273Z,68.20
2019-04-07T00:15:28.295Z,68.70
2019-04-07T00:16:03.523Z,68.20
2019-04-07T00:16:36.757Z,68.20
2019-04-07T00:17:13.822Z,68.30
2019-04-07T00:17:47.614Z,68.20
2019-04-07T00:18:21.755Z,68.20
2019-04-07T00:18:54.973Z,68.30
2019-04-07T00:19:28.355Z,68.30
2019-04-07T00:20:01.124Z,68.30
2019-04-07T00:20:33.710Z,68.30
2019-04-07T00:21:06.649Z,68.50
2019-04-07T00:21:39.608Z,68.70
2019-04-07T00:22:12.153Z,68.80
2019-04-07T00:22:45.593Z,68.80
2019-04-07T00:23:18.695Z,68.80
2019-04-07T00:23:51.619Z,68.80
2019-04-07T00:24:24.654Z,68.80
2019-04-07T00:24:57.365Z,68.80
2019-04-07T00:25:30.223Z,68.90
2019-04-07T00:26:04.100Z,69.00
2019-04-07T00:26:36.755Z,69.20
2019-04-07T00:27:09.324Z,69.30
2019-04-07T00:27:42.348Z,69.30
2019-04-07T00:28:14.908Z,69.30
2019-04-07T00:28:47.476Z,69.30
2019-04-07T00:29:20.055Z,69.30
2019-04-07T00:29:52.655Z,69.40
2019-04-07T00:30:25.219Z,69.50
2019-04-07T00:30:57.801Z,69.40
2019-04-07T00:31:30.753Z,69.40
2019-04-07T00:32:03.600Z,69.40
2019-04-07T00:32:36.147Z,69.40
2019-04-07T00:33:08.738Z,69.40
2019-04-07T00:33:41.369Z,69.50
2019-04-07T00:34:13.994Z,69.40
2019-04-07T00:34:46.835Z,69.40
2019-04-07T00:35:26.905Z,69.50
2019-04-07T00:35:53.883Z,69.60
2019-04-07T00:36:27.846Z,69.60
2019-04-07T00:37:00.835Z,69.70
2019-04-07T00:37:33.672Z,69.70
2019-04-07T00:38:07.327Z,69.80
2019-04-07T00:38:40.611Z,69.90
2019-04-07T00:39:13.556Z,70.00
2019-04-07T00:39:46.628Z,70.00
2019-04-07T00:40:19.661Z,70.20
2019-04-07T00:40:52.660Z,70.20
2019-04-07T00:41:25.249Z,70.30
2019-04-07T00:41:59.214Z,70.50
2019-04-07T00:42:31.824Z,70.50
2019-04-07T00:43:04.544Z,70.60
2019-04-07T00:43:37.624Z,70.60
2019-04-07T00:44:11.404Z,70.60
2019-04-07T00:44:44.290Z,70.70
2019-04-07T00:45:17.228Z,70.70
2019-04-07T00:45:50.306Z,70.60
2019-04-07T00:46:24.291Z,70.60
2019-04-07T00:46:56.843Z,70.50
2019-04-07T00:47:29.504Z,70.60
2019-04-07T00:48:02.163Z,70.70
2019-04-07T00:48:34.896Z,70.50
2019-04-07T00:49:07.491Z,70.50
2019-04-07T00:49:40.184Z,70.40
2019-04-07T00:50:12.996Z,70.20
2019-04-07T00:50:47.001Z,69.90
2019-04-07T00:51:20.568Z,69.80
2019-04-07T00:51:54.032Z,69.60
2019-04-07T00:52:27.189Z,69.50
2019-04-07T00:53:00.355Z,69.60
2019-04-07T00:53:33.230Z,69.50
2019-04-07T00:54:06.169Z,69.30
2019-04-07T00:54:39.286Z,69.30
2019-04-07T00:55:12.336Z,69.50
2019-04-07T00:55:45.239Z,69.80
2019-04-07T00:56:18.301Z,70.10
2019-04-07T00:56:51.136Z,70.00
2019-04-07T00:57:23.753Z,70.10
2019-04-07T00:57:56.363Z,70.00
2019-04-07T00:58:29.030Z,70.10
2019-04-07T00:59:02.650Z,70.30
2019-04-07T00:59:36.064Z,70.20
2019-04-07T01:00:11.755Z,70.30
2019-04-07T01:00:44.619Z,70.30
2019-04-07T01:01:18.150Z,70.40
2019-04-07T01:01:51.444Z,70.40
2019-04-07T01:02:24.663Z,70.40
2019-04-07T01:02:57.213Z,70.60
2019-04-07T01:03:30.200Z,70.80
2019-04-07T01:04:03.568Z,70.90
2019-04-07T01:04:36.459Z,71.00
2019-04-07T01:05:09.149Z,71.10
2019-04-07T01:05:43.399Z,71.20
2019-04-07T01:06:16.576Z,71.20
2019-04-07T01:06:49.561Z,71.20
2019-04-07T01:07:22.119Z,71.20
2019-04-07T01:07:55.254Z,71.30
2019-04-07T01:08:28.164Z,71.40
2019-04-07T01:09:01.098Z,71.30
2019-04-07T01:09:34.120Z,71.50
2019-04-07T01:10:06.900Z,71.70
2019-04-07T01:10:39.431Z,71.70
2019-04-07T01:11:12.281Z,71.70
2019-04-07T01:11:45.135Z,71.70
2019-04-07T01:12:18.260Z,71.70
2019-04-07T01:12:51.265Z,71.70
2019-04-07T01:13:24.016Z,71.80
2019-04-07T01:13:57.270Z,72.10
2019-04-07T01:14:29.830Z,72.40
2019-04-07T01:15:03.301Z,72.60
2019-04-07T01:15:36.272Z,72.80
2019-04-07T01:16:08.821Z,72.90
2019-04-07T01:16:41.829Z,73.10
2019-04-07T01:17:14.943Z,73.10
2019-04-07T01:17:47.530Z,73.00
2019-04-07T01:18:20.606Z,73.10
2019-04-07T01:18:53.503Z,73.00
2019-04-07T01:19:26.170Z,73.10
2019-04-07T01:19:58.740Z,73.10
2019-04-07T01:20:31.751Z,73.10
2019-04-07T01:21:04.820Z,73.20
2019-04-07T01:21:38.134Z,73.20
2019-04-07T01:22:11.158Z,73.00
2019-04-07T01:22:43.722Z,72.90
2019-04-07T01:23:16.291Z,73.10
2019-04-07T01:23:49.211Z,72.90
2019-04-07T01:24:21.899Z,73.30
2019-04-07T01:24:55.094Z,73.40
2019-04-07T01:25:27.654Z,73.20
2019-04-07T01:26:00.909Z,73.00
2019-04-07T01:26:33.921Z,73.20
2019-04-07T01:27:06.606Z,73.10
2019-04-07T01:27:39.190Z,73.30
2019-04-07T01:28:12.120Z,73.30
2019-04-07T01:28:44.924Z,73.40
2019-04-07T01:29:18.385Z,73.40
2019-04-07T01:29:51.610Z,73.50
2019-04-07T01:30:25.154Z,73.50
2019-04-07T01:30:57.917Z,73.50
2019-04-07T01:31:30.474Z,73.60
2019-04-07T01:32:03.062Z,73.80
2019-04-07T01:32:35.794Z,73.90
2019-04-07T01:33:08.723Z,74.00
2019-04-07T01:33:41.745Z,74.20
2019-04-07T01:34:14.896Z,74.20
2019-04-07T01:34:47.633Z,74.20
2019-04-07T01:35:20.284Z,74.20
2019-04-07T01:35:53.034Z,74.30
2019-04-07T01:36:25.801Z,74.40
2019-04-07T01:36:59.813Z,74.40
2019-04-07T01:37:32.534Z,74.40
2019-04-07T01:38:05.930Z,74.30
2019-04-07T01:38:38.482Z,74.40
2019-04-07T01:39:11.958Z,74.20
2019-04-07T01:39:44.925Z,74.20
2019-04-07T01:40:17.709Z,74.20
2019-04-07T01:41:04.819Z,74.20
2019-04-07T01:41:51.418Z,74.20
2019-04-07T01:42:46.706Z,74.10
2019-04-07T01:43:31.832Z,74.00
2019-04-07T01:44:28.350Z,74.00
2019-04-07T01:45:33.316Z,74.10
2019-04-07T01:46:25.394Z,74.40
2019-04-07T01:47:16.728Z,74.70
2019-04-07T01:48:02.401Z,74.90
2019-04-07T01:48:57.444Z,74.90
2019-04-07T01:49:55.640Z,75.00
2019-04-07T01:50:39.142Z,75.20
2019-04-07T01:51:30.235Z,75.40
2019-04-07T01:52:23.629Z,75.30
2019-04-07T01:53:10.046Z,75.40
2019-04-07T01:54:00.898Z,75.50
2019-04-07T01:55:05.293Z,75.50
2019-04-07T01:55:56.462Z,75.50
2019-04-07T01:56:51.738Z,75.70
2019-04-07T01:57:33.864Z,75.80
2019-04-07T01:58:17.359Z,76.00
2019-04-07T01:59:15.483Z,76.00
2019-04-07T02:00:07.549Z,75.90
2019-04-07T02:00:56.551Z,75.60
2019-04-07T02:01:41.677Z,75.50
2019-04-07T02:02:36.739Z,75.20
2019-04-07T02:03:24.135Z,75.20
2019-04-07T02:04:08.146Z,75.20
2019-04-07T02:05:09.740Z,75.30
2019-04-07T02:06:02.613Z,75.40
2019-04-07T02:07:12.983Z,75.80
2019-04-07T02:08:05.475Z,76.00
2019-04-07T02:09:09.474Z,76.40
2019-04-07T02:10:07.663Z,76.50
2019-04-07T02:11:18.632Z,76.70
2019-04-07T02:12:13.695Z,77.10
2019-04-07T02:13:15.223Z,76.90
2019-04-07T02:14:13.751Z,76.50
2019-04-07T02:15:02.364Z,76.20
2019-04-07T02:16:13.072Z,75.90
2019-04-07T02:17:04.317Z,75.90
2019-04-07T02:17:43.879Z,75.90
2019-04-07T02:18:22.468Z,76.00
2019-04-07T02:19:32.792Z,76.10
2019-04-07T02:20:33.358Z,76.30
2019-04-07T02:21:14.178Z,76.80
2019-04-07T02:22:05.796Z,77.30
2019-04-07T02:23:12.940Z,77.50
2019-04-07T02:23:54.845Z,77.60
2019-04-07T02:24:47.581Z,77.90
2019-04-07T02:25:40.533Z,78.10
2019-04-07T02:26:26.637Z,78.20
2019-04-07T02:27:17.965Z,78.40
2019-04-07T02:28:19.725Z,78.80
2019-04-07T02:29:02.678Z,79.30
2019-04-07T02:29:52.810Z,79.60
2019-04-07T02:31:00.633Z,79.90
2019-04-07T02:31:58.855Z,80.00
2019-04-07T02:32:42.799Z,80.10
2019-04-07T02:33:31.080Z,80.30
2019-04-07T02:34:22.000Z,80.30
2019-04-07T02:35:05.969Z,80.20
2019-04-07T02:35:48.027Z,80.30
2019-04-07T02:37:00.038Z,80.20
2019-04-07T02:37:38.746Z,79.90
2019-04-07T02:38:26.097Z,79.70
2019-04-07T02:39:11.090Z,79.40
2019-04-07T02:39:55.228Z,79.40
2019-04-07T02:41:06.102Z,79.20
2019-04-07T02:41:50.427Z,79.10
2019-04-07T02:42:40.959Z,78.80
2019-04-07T02:43:30.930Z,78.90
2019-04-07T02:44:38.904Z,78.90
2019-04-07T02:45:20.455Z,79.20
2019-04-07T02:46:11.410Z,79.60
2019-04-07T02:47:03.448Z,79.80
2019-04-07T02:47:44.586Z,79.90
2019-04-07T02:48:48.973Z,80.00
2019-04-07T02:49:47.565Z,80.10
2019-04-07T02:50:36.617Z,80.80
2019-04-07T02:51:22.711Z,80.60
2019-04-07T02:52:09.105Z,80.80
2019-04-07T02:52:57.257Z,81.70
2019-04-07T02:53:39.160Z,81.10
2019-04-07T02:54:36.276Z,81.30
2019-04-07T02:55:28.310Z,81.40
2019-04-07T02:56:16.418Z,81.50
2019-04-07T02:56:54.461Z,81.70
2019-04-07T02:57:50.642Z,81.90
2019-04-07T02:58:36.298Z,81.90
2019-04-07T02:59:23.266Z,81.80
2019-04-07T03:00:16.012Z,81.80
2019-04-07T03:01:00.558Z,81.60
2019-04-07T03:02:01.446Z,81.50
2019-04-07T03:02:42.683Z,81.30
2019-04-07T03:03:30.894Z,80.90
2019-04-07T03:04:22.962Z,80.70
2019-04-07T03:05:18.021Z,80.50
2019-04-07T03:06:02.061Z,80.50
2019-04-07T03:06:49.733Z,80.50
2019-04-07T03:07:36.053Z,80.70
2019-04-07T03:08:37.814Z,80.70
2019-04-07T03:09:22.047Z,80.70
2019-04-07T03:10:15.734Z,81.00
2019-04-07T03:11:18.018Z,81.10
2019-04-07T03:12:12.418Z,81.50
2019-04-07T03:13:02.989Z,82.00
2019-04-07T03:13:54.309Z,81.90
2019-04-07T03:14:33.531Z,81.90
2019-04-07T03:15:44.324Z,82.10
2019-04-07T03:16:45.543Z,81.90
2019-04-07T03:17:41.515Z,81.50
2019-04-07T03:18:39.615Z,81.20
2019-04-07T03:19:31.962Z,81.10
2019-04-07T03:20:12.689Z,80.70
2019-04-07T03:21:02.427Z,80.50
2019-04-07T03:21:50.590Z,80.50
2019-04-07T03:22:48.144Z,80.60
2019-04-07T03:23:53.316Z,80.60
2019-04-07T03:24:54.849Z,80.70
2019-04-07T03:25:46.408Z,81.10
2019-04-07T03:26:37.692Z,81.40
2019-04-07T03:27:39.453Z,81.80
2019-04-07T03:28:33.108Z,81.90
2019-04-07T03:29:25.558Z,82.00
2019-04-07T03:30:07.035Z,81.80
2019-04-07T03:30:49.568Z,81.70
2019-04-07T03:31:56.228Z,82.00
2019-04-07T03:32:49.327Z,82.30
2019-04-07T03:33:32.236Z,82.30
2019-04-07T03:34:14.823Z,82.60
2019-04-07T03:35:07.389Z,82.60
2019-04-07T03:35:56.894Z,82.60
2019-04-07T03:37:11.629Z,82.10
2019-04-07T03:37:44.798Z,82.10
2019-04-07T03:38:31.851Z,82.20
2019-04-07T03:39:38.114Z,82.50
2019-04-07T03:40:26.831Z,82.70
2019-04-07T03:41:21.780Z,83.10
2019-04-07T03:42:04.338Z,83.40
2019-04-07T03:42:57.372Z,83.80
2019-04-07T03:43:38.032Z,84.60
2019-04-07T03:44:39.411Z,85.10
2019-04-07T03:45:26.981Z,85.40
2019-04-07T03:46:07.995Z,85.70
2019-04-07T03:46:57.414Z,85.90
2019-04-07T03:47:50.225Z,86.10
2019-04-07T03:48:39.545Z,86.40
2019-04-07T03:49:25.619Z,86.40
2019-04-07T03:50:23.475Z,86.70
2019-04-07T03:51:22.423Z,86.90
2019-04-07T03:52:14.519Z,87.00
2019-04-07T03:52:54.378Z,87.10
2019-04-07T03:53:37.783Z,86.80
2019-04-07T03:54:22.794Z,86.80
2019-04-07T03:55:13.942Z,86.70
2019-04-07T03:56:06.099Z,86.70
2019-04-07T03:56:56.559Z,86.80
2019-04-07T03:57:52.491Z,86.90
2019-04-07T03:58:46.133Z,87.00
2019-04-07T03:59:38.366Z,87.00
2019-04-07T04:01:06.653Z,87.20
2019-04-07T04:02:02.110Z,87.20
2019-04-07T04:02:41.721Z,87.30
2019-04-07T04:03:30.119Z,87.30
2019-04-07T04:04:29.982Z,87.60
2019-04-07T04:05:25.020Z,87.50
2019-04-07T04:06:09.606Z,87.40
2019-04-07T04:07:18.106Z,87.50
2019-04-07T04:07:47.554Z,87.60
2019-04-07T04:08:40.144Z,87.70
2019-04-07T04:09:24.882Z,87.90
2019-04-07T04:10:23.736Z,88.00
2019-04-07T04:11:18.195Z,88.00
2019-04-07T04:11:58.586Z,88.00
2019-04-07T04:12:45.690Z,87.90
2019-04-07T04:13:23.371Z,88.00
2019-04-07T04:14:03.101Z,88.10
2019-04-07T04:15:01.604Z,88.20
2019-04-07T04:15:53.782Z,88.20
2019-04-07T04:16:32.086Z,88.40
2019-04-07T04:17:05.182Z,88.30
2019-04-07T04:17:37.708Z,87.60
2019-04-07T04:18:10.265Z,87.50
2019-04-07T04:18:42.845Z,87.60
2019-04-07T04:19:15.501Z,87.80
2019-04-07T04:19:48.392Z,87.90
2019-04-07T04:20:21.563Z,87.80
2019-04-07T04:20:54.586Z,87.70
2019-04-07T04:21:27.132Z,87.60
2019-04-07T04:22:00.573Z,87.70
2019-04-07T04:22:33.280Z,87.70
2019-04-07T04:23:05.971Z,87.80
2019-04-07T04:23:42.712Z,87.90
2019-04-07T04:24:14.273Z,87.90
2019-04-07T04:24:47.178Z,87.90
2019-04-07T04:25:21.137Z,87.90
2019-04-07T04:25:53.840Z,87.70
2019-04-07T04:26:26.931Z,87.80
2019-04-07T04:26:59.854Z,87.80
2019-04-07T04:27:33.184Z,87.80
2019-04-07T04:28:06.638Z,87.60
2019-04-07T04:28:39.209Z,87.50
2019-04-07T04:29:12.279Z,87.30
2019-04-07T04:29:45.042Z,87.50
2019-04-07T04:30:17.635Z,87.70
2019-04-07T04:30:50.648Z,87.80
2019-04-07T04:31:25.336Z,87.80
2019-04-07T04:31:59.584Z,87.60
2019-04-07T04:32:32.787Z,87.50
2019-04-07T04:33:06.277Z,87.60
2019-04-07T04:33:39.571Z,87.60
2019-04-07T04:34:12.856Z,87.60
2019-04-07T04:34:45.391Z,87.60
2019-04-07T04:35:18.894Z,87.60
2019-04-07T04:35:51.930Z,87.80
2019-04-07T04:36:25.320Z,88.00
2019-04-07T04:36:58.330Z,88.10
2019-04-07T04:37:39.875Z,88.40
2019-04-07T04:38:06.139Z,88.40
2019-04-07T04:38:38.758Z,88.50
2019-04-07T04:39:12.716Z,88.50
2019-04-07T04:39:46.282Z,88.70
2019-04-07T04:40:19.516Z,88.80
2019-04-07T04:40:53.563Z,88.90
2019-04-07T04:41:26.111Z,89.10
2019-04-07T04:41:59.829Z,89.20
2019-04-07T04:42:33.742Z,89.30
2019-04-07T04:43:06.577Z,89.40
2019-04-07T04:43:40.351Z,89.50
2019-04-07T04:44:12.975Z,89.50
2019-04-07T04:44:45.663Z,89.80
2019-04-07T04:45:18.195Z,89.90
2019-04-07T04:45:51.120Z,89.80
2019-04-07T04:46:24.069Z,90.00
2019-04-07T04:46:56.615Z,89.80
2019-04-07T04:47:29.198Z,89.60
2019-04-07T04:48:02.804Z,89.40
2019-04-07T04:48:35.452Z,89.30
2019-04-07T04:49:08.404Z,89.00
2019-04-07T04:49:41.697Z,88.90
2019-04-07T04:50:14.835Z,88.80
2019-04-07T04:50:47.500Z,88.70
2019-04-07T04:51:20.383Z,88.40
2019-04-07T04:51:52.980Z,88.10
2019-04-07T04:52:25.533Z,88.20
2019-04-07T04:52:58.436Z,87.70
2019-04-07T04:53:30.977Z,87.40
2019-04-07T04:54:03.825Z,87.30
2019-04-07T04:54:36.547Z,87.20
2019-04-07T04:55:09.412Z,86.90
2019-04-07T04:55:41.954Z,86.70
2019-04-07T04:56:14.661Z,86.90
2019-04-07T04:56:47.262Z,87.10
2019-04-07T04:57:19.976Z,87.10
2019-04-07T04:57:52.577Z,87.10
2019-04-07T04:58:25.822Z,87.00
2019-04-07T04:58:59.789Z,87.00
2019-04-07T04:59:33.298Z,87.00
2019-04-07T05:00:07.074Z,87.30
2019-04-07T05:00:41.197Z,87.30
2019-04-07T05:01:13.895Z,87.30
2019-04-07T05:01:46.450Z,87.40
2019-04-07T05:02:19.059Z,86.90
2019-04-07T05:02:52.451Z,87.40
2019-04-07T05:03:26.009Z,87.20
2019-04-07T05:03:59.428Z,87.30
2019-04-07T05:04:32.678Z,87.40
2019-04-07T05:05:09.021Z,87.50
2019-04-07T05:05:41.262Z,87.60
2019-04-07T05:06:14.415Z,87.60
2019-04-07T05:06:47.845Z,87.60
2019-04-07T05:07:20.955Z,87.70
2019-04-07T05:08:00.192Z,87.90
2019-04-07T05:08:27.951Z,88.30
2019-04-07T05:09:01.134Z,88.80
2019-04-07T05:09:44.253Z,89.40
2019-04-07T05:10:08.474Z,90.10
2019-04-07T05:10:41.662Z,90.30
2019-04-07T05:11:14.675Z,90.40
2019-04-07T05:11:47.592Z,90.50
2019-04-07T05:12:20.938Z,90.50
2019-04-07T05:12:53.680Z,90.50
2019-04-07T05:13:27.252Z,90.40
2019-04-07T05:14:00.287Z,90.50
2019-04-07T05:14:33.353Z,90.50
2019-04-07T05:15:06.730Z,90.60
2019-04-07T05:15:39.206Z,90.50
2019-04-07T05:16:11.887Z,90.40
2019-04-07T05:16:44.764Z,90.40
2019-04-07T05:17:17.398Z,90.40
2019-04-07T05:17:50.363Z,90.50
2019-04-07T05:18:23.246Z,90.60
2019-04-07T05:18:56.085Z,90.90
2019-04-07T05:19:28.780Z,90.80
2019-04-07T05:20:01.345Z,91.00
2019-04-07T05:20:34.460Z,91.20
2019-04-07T05:21:07.043Z,90.40
2019-04-07T05:21:39.591Z,89.70
2019-04-07T05:22:12.537Z,88.30
2019-04-07T05:22:45.331Z,87.30
2019-04-07T05:23:18.537Z,85.90
2019-04-07T05:23:51.392Z,84.20
2019-04-07T05:24:24.761Z,82.90
2019-04-07T05:24:57.582Z,81.70
2019-04-07T05:25:30.481Z,80.70
2019-04-07T05:26:03.583Z,79.50
2019-04-07T05:26:36.541Z,78.20
2019-04-07T05:27:09.716Z,76.10
2019-04-07T05:27:43.232Z,75.70
2019-04-07T05:28:16.612Z,74.00
2019-04-07T05:28:49.210Z,72.30
2019-04-07T05:29:21.726Z,71.10
2019-04-07T05:29:54.525Z,70.30
2019-04-07T05:30:27.267Z,69.90
2019-04-07T05:30:59.818Z,68.90
2019-04-07T05:31:32.723Z,68.50
2019-04-07T05:32:05.687Z,67.70
2019-04-07T05:32:38.902Z,66.70
2019-04-07T05:33:12.055Z,66.10
2019-04-07T05:33:44.918Z,65.30
2019-04-07T05:34:20.558Z,65.00
2019-04-07T05:34:52.154Z,64.60
2019-04-07T05:35:24.931Z,63.70
2019-04-07T05:35:58.307Z,62.90
2019-04-07T05:36:31.357Z,62.10
2019-04-07T05:37:03.995Z,61.50
2019-04-07T05:37:36.548Z,60.70
2019-04-07T05:38:09.488Z,59.90
2019-04-07T05:38:42.108Z,59.40
2019-04-07T05:39:15.280Z,59.40
2019-04-07T05:39:48.383Z,59.00
2019-04-07T05:40:21.315Z,58.40
2019-04-07T05:40:53.913Z,58.00
2019-04-07T05:41:27.197Z,57.70
2019-04-07T05:42:00.201Z,57.40
2019-04-07T05:42:32.852Z,57.30
2019-04-07T05:43:06.238Z,57.10
2019-04-07T05:43:38.910Z,57.00
2019-04-07T05:44:11.478Z,56.90
2019-04-07T05:44:44.376Z,56.30
2019-04-07T05:45:17.406Z,55.70
2019-04-07T05:45:50.053Z,55.30
2019-04-07T05:46:22.821Z,55.00
2019-04-07T05:46:56.042Z,54.70
2019-04-07T05:47:29.837Z,54.90
2019-04-07T05:48:03.195Z,54.60
2019-04-07T05:48:35.734Z,54.30
2019-04-07T05:49:08.671Z,54.10
2019-04-07T05:49:41.443Z,54.40
2019-04-07T05:50:14.566Z,54.50
2019-04-07T05:50:47.298Z,54.00
2019-04-07T05:51:20.889Z,54.30
2019-04-07T05:51:54.482Z,53.70
2019-04-07T05:52:27.284Z,53.30
2019-04-07T05:53:00.316Z,52.80
2019-04-07T05:53:33.322Z,52.50
2019-04-07T05:54:07.054Z,52.10
2019-04-07T05:54:40.315Z,51.90
2019-04-07T05:55:13.262Z,51.80
2019-04-07T05:55:46.036Z,51.00
2019-04-07T05:56:18.702Z,50.50
2019-04-07T05:56:51.514Z,50.50
2019-04-07T05:57:25.011Z,51.00
2019-04-07T05:57:58.664Z,51.20
2019-04-07T05:58:31.276Z,50.90
2019-04-07T05:59:04.086Z,50.80
2019-04-07T05:59:37.510Z,51.30
2019-04-07T06:00:15.607Z,52.00
2019-04-07T06:00:48.604Z,51.50
2019-04-07T06:01:23.453Z,51.50
2019-04-07T06:01:59.821Z,51.30
2019-04-07T06:02:33.462Z,51.30
2019-04-07T06:03:07.144Z,51.50
2019-04-07T06:03:41.271Z,51.80
2019-04-07T06:04:16.743Z,51.80
2019-04-07T06:04:48.442Z,51.40
2019-04-07T06:05:22.217Z,51.70
2019-04-07T06:05:56.115Z,51.90
2019-04-07T06:06:28.881Z,51.70
2019-04-07T06:07:02.491Z,51.70
2019-04-07T06:07:36.577Z,51.80
2019-04-07T06:08:22.611Z,51.80
2019-04-07T06:08:46.994Z,51.60
2019-04-07T06:09:20.477Z,52.00
2019-04-07T06:09:53.521Z,51.30
2019-04-07T06:10:28.697Z,51.00
2019-04-07T06:11:02.296Z,50.90
2019-04-07T06:11:36.143Z,50.70
2019-04-07T06:12:09.753Z,50.70
2019-04-07T06:12:46.093Z,50.70
2019-04-07T06:13:17.577Z,50.40
2019-04-07T06:13:50.515Z,50.00
2019-04-07T06:14:24.300Z,50.00
2019-04-07T06:14:57.295Z,49.80
2019-04-07T06:15:30.291Z,49.70
2019-04-07T06:16:03.333Z,50.00
2019-04-07T06:16:35.949Z,49.50
2019-04-07T06:17:08.951Z,49.60
2019-04-07T06:17:41.477Z,49.90
2019-04-07T06:18:16.001Z,49.80
2019-04-07T06:18:52.292Z,49.70
2019-04-07T06:19:25.049Z,49.80
2019-04-07T06:19:59.167Z,50.20
2019-04-07T06:20:32.277Z,49.90
2019-04-07T06:21:07.674Z,49.60
2019-04-07T06:21:41.506Z,49.70
2019-04-07T06:22:19.850Z,50.30
2019-04-07T06:22:53.037Z,51.10
2019-04-07T06:23:25.786Z,51.40
2019-04-07T06:24:00.594Z,52.20
2019-04-07T06:24:35.020Z,53.20
2019-04-07T06:25:07.809Z,53.50
2019-04-07T06:25:43.560Z,53.50
2019-04-07T06:26:17.209Z,53.50
2019-04-07T06:26:51.355Z,53.40
2019-04-07T06:27:24.001Z,54.00
2019-04-07T06:27:58.864Z,54.30
2019-04-07T06:28:31.605Z,53.90
2019-04-07T06:29:04.786Z,55.40
2019-04-07T06:29:37.795Z,54.70
2019-04-07T06:30:11.832Z,54.20
2019-04-07T06:30:44.944Z,55.10
2019-04-07T06:31:17.551Z,55.50
2019-04-07T06:31:52.700Z,55.40
2019-04-07T06:32:25.657Z,55.70
2019-04-07T06:32:58.663Z,55.90
2019-04-07T06:33:34.416Z,55.10
2019-04-07T06:34:10.103Z,54.00
2019-04-07T06:34:43.571Z,54.30
2019-04-07T06:35:17.023Z,55.00
2019-04-07T06:35:49.981Z,55.20
2019-04-07T06:36:25.399Z,55.40
2019-04-07T06:36:56.781Z,55.80
2019-04-07T06:37:29.516Z,56.70
2019-04-07T06:38:06.703Z,57.40
2019-04-07T06:38:42.379Z,57.30
2019-04-07T06:39:10.788Z,57.70
2019-04-07T06:39:44.084Z,58.20
2019-04-07T06:40:20.404Z,57.70
2019-04-07T06:40:56.468Z,57.40
2019-04-07T06:41:29.516Z,57.40
2019-04-07T06:42:01.387Z,57.70
2019-04-07T06:42:35.375Z,57.50
2019-04-07T06:43:08.114Z,57.10
2019-04-07T06:43:41.206Z,57.20
2019-04-07T06:44:19.388Z,57.30
2019-04-07T06:44:50.139Z,57.30
2019-04-07T06:45:26.572Z,58.00
2019-04-07T06:46:22.615Z,58.60
2019-04-07T06:47:15.961Z,59.30
2019-04-07T06:47:51.851Z,60.10
2019-04-07T06:48:24.558Z,60.30
2019-04-07T06:49:11.281Z,59.90
2019-04-07T06:50:00.720Z,60.30
2019-04-07T06:50:50.264Z,60.10
2019-04-07T06:51:31.102Z,60.30
2019-04-07T06:52:26.560Z,60.90
2019-04-07T06:53:20.660Z,60.90
2019-04-07T06:54:05.845Z,60.50
2019-04-07T06:54:56.054Z,59.40
2019-04-07T06:55:40.830Z,59.20
2019-04-07T06:56:37.036Z,60.60
2019-04-07T06:57:29.921Z,59.20
2019-04-07T06:58:38.778Z,58.30
2019-04-07T06:59:28.371Z,58.30
2019-04-07T07:00:25.505Z,58.70
2019-04-07T07:01:17.540Z,59.20
2019-04-07T07:02:34.859Z,60.50
2019-04-07T07:03:33.655Z,59.10
2019-04-07T07:04:23.225Z,60.50
2019-04-07T07:05:16.574Z,61.00
2019-04-07T07:06:16.478Z,61.20
2019-04-07T07:07:07.323Z,61.30
2019-04-07T07:08:07.426Z,60.90
2019-04-07T07:09:01.994Z,61.30
2019-04-07T07:10:00.972Z,62.30
2019-04-07T07:10:54.236Z,61.60
2019-04-07T07:11:46.234Z,61.10
2019-04-07T07:12:32.347Z,61.10
2019-04-07T07:13:31.297Z,60.10
2019-04-07T07:14:32.817Z,59.40
2019-04-07T07:15:17.030Z,59.30
2019-04-07T07:16:14.642Z,60.10
2019-04-07T07:17:04.058Z,61.20
2019-04-07T07:18:00.286Z,61.10
2019-04-07T07:18:47.018Z,60.90
2019-04-07T07:19:39.153Z,61.20
2019-04-07T07:20:37.304Z,61.10
2019-04-07T07:21:28.629Z,58.90
2019-04-07T07:22:15.543Z,58.40
2019-04-07T07:22:50.705Z,58.10
2019-04-07T07:23:27.350Z,58.30
2019-04-07T07:24:00.188Z,58.60
2019-04-07T07:24:32.889Z,60.00
2019-04-07T07:25:05.779Z,59.10
2019-04-07T07:25:38.447Z,58.90
2019-04-07T07:26:11.561Z,60.00
2019-04-07T07:26:44.217Z,60.30
2019-04-07T07:27:18.699Z,60.40
2019-04-07T07:27:51.270Z,60.00
2019-04-07T07:28:25.147Z,59.40
2019-04-07T07:28:58.301Z,59.70
2019-04-07T07:29:32.101Z,60.30
2019-04-07T07:30:05.608Z,60.00
2019-04-07T07:30:39.267Z,59.90
2019-04-07T07:31:11.837Z,59.60
2019-04-07T07:31:44.861Z,59.70
2019-04-07T07:32:18.012Z,60.30
2019-04-07T07:32:50.866Z,59.20
2019-04-07T07:33:23.513Z,59.80
2019-04-07T07:33:57.065Z,59.40
2019-04-07T07:34:32.407Z,59.30
2019-04-07T07:35:06.261Z,59.70
2019-04-07T07:35:39.803Z,59.50
2019-04-07T07:36:17.295Z,59.50
2019-04-07T07:36:52.238Z,59.50
2019-04-07T07:37:22.955Z,59.90
2019-04-07T07:37:59.445Z,59.50
2019-04-07T07:38:32.743Z,59.60
2019-04-07T07:39:10.341Z,59.50
2019-04-07T07:39:42.631Z,59.50
2019-04-07T07:40:17.950Z,59.90
2019-04-07T07:40:50.126Z,60.40
2019-04-07T07:41:24.065Z,60.70
2019-04-07T07:41:57.347Z,60.60
2019-04-07T07:42:30.569Z,60.40
2019-04-07T07:43:03.541Z,60.30
2019-04-07T07:43:36.922Z,60.30
2019-04-07T07:44:10.262Z,60.30
2019-04-07T07:44:45.488Z,59.40
2019-04-07T07:45:18.633Z,59.70
2019-04-07T07:45:53.058Z,59.70
2019-04-07T07:46:25.634Z,59.90
2019-04-07T07:46:58.261Z,59.60
2019-04-07T07:47:31.461Z,59.90
2019-04-07T07:48:04.187Z,59.80
2019-04-07T07:48:36.887Z,60.30
2019-04-07T07:49:09.430Z,60.50
2019-04-07T07:49:42.461Z,60.50
2019-04-07T07:50:16.373Z,61.40
2019-04-07T07:50:48.918Z,61.70
2019-04-07T07:51:25.635Z,61.90
2019-04-07T07:51:59.278Z,61.60
2019-04-07T07:52:31.860Z,61.40
2019-04-07T07:53:04.719Z,61.10
2019-04-07T07:53:37.337Z,61.60
2019-04-07T07:54:11.113Z,61.80
2019-04-07T07:54:45.849Z,61.50
2019-04-07T07:55:18.676Z,61.30
2019-04-07T07:55:51.265Z,60.10
2019-04-07T07:56:24.442Z,60.80
2019-04-07T07:56:58.000Z,60.50
2019-04-07T07:57:30.642Z,60.40
2019-04-07T07:58:03.986Z,60.20
2019-04-07T07:58:36.725Z,60.00
2019-04-07T07:59:09.631Z,60.50
2019-04-07T07:59:42.183Z,61.20
2019-04-07T08:00:15.622Z,61.80
2019-04-07T08:00:48.599Z,61.80
2019-04-07T08:01:21.190Z,61.10
2019-04-07T08:01:54.541Z,60.80
2019-04-07T08:02:29.062Z,60.20
2019-04-07T08:03:02.684Z,60.10
2019-04-07T08:03:36.041Z,60.00
2019-04-07T08:04:08.757Z,60.10
2019-04-07T08:04:41.414Z,58.90
2019-04-07T08:05:13.980Z,60.00
2019-04-07T08:05:49.161Z,60.20
2019-04-07T08:06:22.270Z,60.80
2019-04-07T08:06:54.868Z,60.80
2019-04-07T08:07:28.095Z,60.50
2019-04-07T08:08:01.754Z,60.40
2019-04-07T08:08:34.352Z,59.70
2019-04-07T08:09:13.814Z,59.50
2019-04-07T08:09:42.570Z,59.20
2019-04-07T08:10:17.050Z,58.80
2019-04-07T08:10:49.707Z,58.90
2019-04-07T08:11:23.838Z,59.00
2019-04-07T08:11:56.755Z,59.50
2019-04-07T08:12:34.274Z,59.30
2019-04-07T08:13:07.715Z,59.50
2019-04-07T08:13:43.906Z,59.90
2019-04-07T08:14:16.658Z,59.70
2019-04-07T08:14:51.805Z,59.80
2019-04-07T08:15:28.230Z,60.20
2019-04-07T08:16:00.641Z,60.00
2019-04-07T08:16:33.563Z,59.00
2019-04-07T08:17:06.253Z,59.30
2019-04-07T08:17:39.675Z,59.50
2019-04-07T08:18:12.445Z,59.70